createdAt,value
2023-06-09T00:01:53.394Z,97925.56
2023-06-09T00:04:20.058Z,97929.03
2023-06-09T00:06:46.715Z,97922.88
2023-06-09T00:09:13.586Z,97923.69
2023-06-09T00:11:40.228Z,97916.38
2023-06-09T00:14:06.605Z,97921.41
2023-06-09T00:16:33.037Z,97917.00
2023-06-09T00:18:59.381Z,97916.94
2023-06-09T00:21:25.816Z,97916.38
2023-06-09T00:23:52.462Z,97915.56
2023-06-09T00:26:19.306Z,97917.44
2023-06-09T00:28:45.830Z,97923.13
2023-06-09T00:31:12.354Z,97927.59
2023-06-09T00:33:38.829Z,97925.06
2023-06-09T00:36:05.619Z,97916.47
2023-06-09T00:38:32.004Z,97913.28
2023-06-09T00:40:58.514Z,97915.72
2023-06-09T00:43:24.901Z,97913.06
2023-06-09T00:45:51.391Z,97915.50
2023-06-09T00:48:17.859Z,97917.91
2023-06-09T00:50:44.267Z,97918.97
2023-06-09T00:53:12.254Z,97923.22
2023-06-09T00:55:41.422Z,97931.75
2023-06-09T00:58:09.397Z,97926.84
2023-06-09T01:00:35.978Z,97927.41
2023-06-09T01:03:03.522Z,97933.38
2023-06-09T01:05:32.012Z,97935.22
2023-06-09T01:08:26.184Z,97935.69
2023-06-09T01:11:23.786Z,97934.56
2023-06-09T01:14:02.615Z,97929.69
2023-06-09T01:16:38.949Z,97929.13
2023-06-09T01:19:11.994Z,97929.34
2023-06-09T01:21:46.690Z,97927.97
2023-06-09T01:24:32.877Z,97934.41
2023-06-09T01:27:03.893Z,97933.81
2023-06-09T01:29:32.574Z,97933.81
2023-06-09T01:32:01.697Z,97929.28
2023-06-09T01:34:29.048Z,97921.25
2023-06-09T01:36:55.665Z,97923.59
2023-06-09T01:39:22.191Z,97923.00
2023-06-09T01:41:48.587Z,97917.88
2023-06-09T01:44:15.011Z,97917.88
2023-06-09T01:46:42.405Z,97910.66
2023-06-09T01:49:17.207Z,97912.75
2023-06-09T01:51:53.667Z,97917.78
2023-06-09T01:54:32.989Z,97923.31
2023-06-09T01:57:07.221Z,97922.19
2023-06-09T01:59:52.378Z,97925.44
2023-06-09T02:02:20.787Z,97928.34
2023-06-09T02:04:51.162Z,97928.84
2023-06-09T02:07:18.326Z,97930.13
2023-06-09T02:09:48.313Z,97923.72
2023-06-09T02:12:14.796Z,97924.53
2023-06-09T02:14:42.335Z,97918.59
2023-06-09T02:17:09.288Z,97932.00
2023-06-09T02:19:39.454Z,97917.44
2023-06-09T02:22:07.094Z,97928.38
2023-06-09T02:24:34.179Z,97923.84
2023-06-09T02:27:00.542Z,97924.91
2023-06-09T02:29:27.746Z,97917.66
2023-06-09T02:31:59.777Z,97919.53
2023-06-09T02:34:26.178Z,97913.38
2023-06-09T02:36:52.678Z,97909.28
2023-06-09T02:39:20.258Z,97910.81
2023-06-09T02:41:47.007Z,97915.59
2023-06-09T02:44:14.151Z,97920.72
2023-06-09T02:46:40.790Z,97917.78
2023-06-09T02:49:07.882Z,97921.03
2023-06-09T02:51:34.340Z,97926.16
2023-06-09T02:54:00.688Z,97916.84
2023-06-09T02:56:27.057Z,97920.34
2023-06-09T02:58:53.591Z,97915.56
2023-06-09T03:01:21.082Z,97916.38
2023-06-09T03:03:48.439Z,97921.72
2023-06-09T03:06:15.276Z,97923.97
2023-06-09T03:08:42.106Z,97913.81
2023-06-09T03:11:08.721Z,97923.16
2023-06-09T03:13:35.355Z,97928.84
2023-06-09T03:16:01.798Z,97923.53
2023-06-09T03:18:28.254Z,97925.28
2023-06-09T03:20:54.936Z,97931.69
2023-06-09T03:23:21.941Z,97936.81
2023-06-09T03:25:49.008Z,97931.34
2023-06-09T03:28:15.357Z,97922.34
2023-06-09T03:30:41.783Z,97927.44
2023-06-09T03:33:08.233Z,97924.19
2023-06-09T03:35:34.596Z,97942.03
2023-06-09T03:38:00.928Z,97949.38
2023-06-09T03:40:27.318Z,97953.69
2023-06-09T03:42:53.662Z,97949.75
2023-06-09T03:45:19.973Z,97946.94
2023-06-09T03:47:46.313Z,97937.00
2023-06-09T03:50:12.890Z,97948.28
2023-06-09T03:52:41.228Z,97959.47
2023-06-09T03:55:08.203Z,97959.16
2023-06-09T03:57:34.637Z,97966.34
2023-06-09T04:00:01.063Z,97958.91
2023-06-09T04:02:27.597Z,97968.69
2023-06-09T04:04:54.005Z,97967.84
2023-06-09T04:07:20.355Z,97958.78
2023-06-09T04:09:46.722Z,97957.72
2023-06-09T04:12:13.050Z,97964.47
2023-06-09T04:14:39.533Z,97957.56
2023-06-09T04:17:06.681Z,97958.72
2023-06-09T04:19:33.069Z,97966.84
2023-06-09T04:22:04.099Z,97974.97
2023-06-09T04:24:30.430Z,97969.97
2023-06-09T04:26:56.741Z,97974.59
2023-06-09T04:29:23.207Z,97976.56
2023-06-09T04:31:49.632Z,97970.22
2023-06-09T04:34:16.072Z,97971.22
2023-06-09T04:36:42.522Z,97973.44
2023-06-09T04:39:09.412Z,97970.97
2023-06-09T04:41:35.913Z,97970.66
2023-06-09T04:44:02.376Z,97963.81
2023-06-09T04:46:28.868Z,97963.56
2023-06-09T04:48:55.246Z,97970.78
2023-06-09T04:51:21.679Z,97974.28
2023-06-09T04:53:48.008Z,97971.66
2023-06-09T04:56:14.351Z,97972.47
2023-06-09T04:58:40.950Z,97983.00
2023-06-09T05:01:07.301Z,97981.72
2023-06-09T05:03:33.672Z,97986.91
2023-06-09T05:06:00.052Z,97986.22
2023-06-09T05:08:26.390Z,97982.88
2023-06-09T05:10:52.761Z,97978.44
2023-06-09T05:13:19.857Z,97975.41
2023-06-09T05:15:46.292Z,97975.31
2023-06-09T05:18:12.625Z,97983.53
2023-06-09T05:20:38.989Z,97985.00
2023-06-09T05:23:05.354Z,97984.09
2023-06-09T05:25:31.682Z,97982.13
2023-06-09T05:27:58.019Z,97986.25
2023-06-09T05:30:24.439Z,97985.47
2023-06-09T05:32:50.832Z,97983.72
2023-06-09T05:35:17.215Z,97978.97
2023-06-09T05:37:51.159Z,97982.19
2023-06-09T05:40:19.472Z,97986.59
2023-06-09T05:42:46.249Z,97987.53
2023-06-09T05:45:12.619Z,97982.66
2023-06-09T05:47:38.966Z,97986.94
2023-06-09T05:50:06.072Z,97984.00
2023-06-09T05:52:32.488Z,97988.81
2023-06-09T05:54:58.817Z,97984.50
2023-06-09T05:57:25.164Z,97999.84
2023-06-09T05:59:51.612Z,98000.09
2023-06-09T06:02:18.225Z,98002.00
2023-06-09T06:04:44.717Z,97995.63
2023-06-09T06:07:11.178Z,98000.50
2023-06-09T06:09:37.633Z,97999.25
2023-06-09T06:12:04.331Z,97992.63
2023-06-09T06:14:30.647Z,97993.53
2023-06-09T06:16:57.088Z,97993.56
2023-06-09T06:19:24.024Z,97999.81
2023-06-09T06:21:50.409Z,97991.25
2023-06-09T06:24:16.945Z,97979.94
2023-06-09T06:26:43.386Z,97988.59
2023-06-09T06:29:09.736Z,97984.31
2023-06-09T06:31:36.214Z,97988.38
2023-06-09T06:34:04.253Z,97986.81
2023-06-09T06:36:32.173Z,97983.06
2023-06-09T06:38:58.535Z,97981.19
2023-06-09T06:41:25.013Z,97988.78
2023-06-09T06:43:51.451Z,97989.03
2023-06-09T06:46:18.514Z,97985.00
2023-06-09T06:48:45.050Z,97986.03
2023-06-09T06:51:11.385Z,97997.94
2023-06-09T06:53:38.012Z,97995.75
2023-06-09T06:56:04.659Z,97993.56
2023-06-09T06:58:31.073Z,97994.06
2023-06-09T07:00:57.505Z,97991.56
2023-06-09T07:03:24.373Z,97990.16
2023-06-09T07:05:51.257Z,97997.69
2023-06-09T07:08:17.606Z,97996.84
2023-06-09T07:10:44.064Z,97995.72
2023-06-09T07:13:10.467Z,97996.75
2023-06-09T07:15:36.916Z,97997.50
2023-06-09T07:18:03.689Z,97990.94
2023-06-09T07:20:30.184Z,97985.22
2023-06-09T07:22:56.515Z,97982.41
2023-06-09T07:25:22.839Z,97980.19
2023-06-09T07:27:49.245Z,97980.41
2023-06-09T07:30:16.000Z,97990.66
2023-06-09T07:32:42.397Z,97991.47
2023-06-09T07:35:09.048Z,97991.16
2023-06-09T07:37:35.378Z,97992.69
2023-06-09T07:40:14.093Z,97992.66
2023-06-09T07:42:45.193Z,97995.25
2023-06-09T07:45:11.638Z,97997.25
2023-06-09T07:47:38.179Z,97994.19
2023-06-09T07:50:05.116Z,97988.25
2023-06-09T07:52:31.528Z,97985.09
2023-06-09T07:54:57.865Z,97981.06
2023-06-09T07:57:24.338Z,97976.50
2023-06-09T07:59:50.706Z,97969.41
2023-06-09T08:02:17.032Z,97971.69
2023-06-09T08:04:43.596Z,97965.09
2023-06-09T08:07:10.205Z,97970.59
2023-06-09T08:09:36.638Z,97973.13
2023-06-09T08:12:04.947Z,97969.16
2023-06-09T08:14:31.400Z,97967.28
2023-06-09T08:16:57.821Z,97970.50
2023-06-09T08:19:24.308Z,97960.00
2023-06-09T08:21:50.635Z,97953.91
2023-06-09T08:24:17.414Z,97960.50
2023-06-09T08:26:43.790Z,97963.50
2023-06-09T08:29:11.539Z,97967.47
2023-06-09T08:31:38.076Z,97956.44
2023-06-09T08:34:04.778Z,97968.03
2023-06-09T08:36:31.232Z,97955.03
2023-06-09T08:38:57.567Z,97957.91
2023-06-09T08:41:26.698Z,97957.78
2023-06-09T08:43:53.213Z,97938.25
2023-06-09T08:46:21.649Z,97946.91
2023-06-09T08:48:54.856Z,97951.06
2023-06-09T08:51:21.279Z,97944.03
2023-06-09T08:53:51.616Z,97940.94
2023-06-09T08:56:18.511Z,97941.22
2023-06-09T08:58:45.849Z,97940.50
2023-06-09T09:01:12.731Z,97942.53
2023-06-09T09:03:39.114Z,97946.06
2023-06-09T09:06:05.712Z,97946.06
2023-06-09T09:08:32.064Z,97942.66
2023-06-09T09:10:58.694Z,97937.09
2023-06-09T09:13:29.495Z,97945.94
2023-06-09T09:15:56.371Z,97941.09
2023-06-09T09:18:23.158Z,97938.97
2023-06-09T09:20:49.573Z,97943.38
2023-06-09T09:23:16.011Z,97936.72
2023-06-09T09:25:42.774Z,97943.06
2023-06-09T09:28:11.309Z,97933.19
2023-06-09T09:30:49.602Z,97934.97
2023-06-09T09:33:26.629Z,97940.50
2023-06-09T09:35:55.089Z,97925.97
2023-06-09T09:38:27.334Z,97926.81
2023-06-09T09:40:58.386Z,97926.59
2023-06-09T09:43:28.891Z,97920.06
2023-06-09T09:45:57.229Z,97920.06
2023-06-09T09:48:24.763Z,97917.16
2023-06-09T09:50:53.200Z,97908.66
2023-06-09T09:53:27.024Z,97908.03
2023-06-09T09:55:55.405Z,97912.00
2023-06-09T09:58:36.040Z,97907.53
2023-06-09T10:01:07.285Z,97910.97
2023-06-09T10:03:35.883Z,97914.69
2023-06-09T10:06:04.778Z,97907.31
2023-06-09T10:08:32.612Z,97905.94
2023-06-09T10:10:59.457Z,97899.56
2023-06-09T10:13:25.747Z,97896.22
2023-06-09T10:15:52.369Z,97894.16
2023-06-09T10:18:19.659Z,97886.59
2023-06-09T10:20:46.107Z,97885.50
2023-06-09T10:23:12.686Z,97885.97
2023-06-09T10:25:39.170Z,97878.72
2023-06-09T10:28:06.187Z,97877.81
2023-06-09T10:30:32.815Z,97880.16
2023-06-09T10:33:16.754Z,97873.44
2023-06-09T10:35:45.240Z,97877.00
2023-06-09T10:38:29.108Z,97868.00
2023-06-09T10:41:18.688Z,97864.28
2023-06-09T10:44:01.068Z,97862.78
2023-06-09T10:46:40.530Z,97865.47
2023-06-09T10:49:07.139Z,97862.38
2023-06-09T10:51:43.287Z,97854.84
2023-06-09T10:54:09.590Z,97851.72
2023-06-09T10:56:40.534Z,97849.78
2023-06-09T10:59:06.909Z,97853.56
2023-06-09T11:01:33.448Z,97843.97
2023-06-09T11:03:59.937Z,97850.31
2023-06-09T11:06:26.330Z,97855.13
2023-06-09T11:09:01.672Z,97852.41
2023-06-09T11:11:48.212Z,97835.47
2023-06-09T11:14:56.694Z,97843.13
2023-06-09T11:17:43.202Z,97843.47
2023-06-09T11:20:10.135Z,97839.19
2023-06-09T11:22:42.711Z,97832.19
2023-06-09T11:25:40.866Z,97833.06
2023-06-09T11:28:07.684Z,97826.66
2023-06-09T11:30:34.363Z,97830.09
2023-06-09T11:33:03.160Z,97828.91
2023-06-09T11:35:29.660Z,97822.09
2023-06-09T11:38:04.537Z,97823.41
2023-06-09T11:40:32.543Z,97827.22
2023-06-09T11:43:00.282Z,97825.03
2023-06-09T11:45:31.726Z,97825.66
2023-06-09T11:48:00.017Z,97824.44
2023-06-09T11:50:35.998Z,97815.44
2023-06-09T11:53:10.947Z,97814.59
2023-06-09T11:55:38.177Z,97809.66
2023-06-09T11:58:05.263Z,97811.81
2023-06-09T12:00:33.008Z,97813.16
2023-06-09T12:02:59.974Z,97813.00
2023-06-09T12:05:27.005Z,97812.06
2023-06-09T12:07:54.911Z,97805.72
2023-06-09T12:10:23.068Z,97795.63
2023-06-09T12:12:51.519Z,97796.47
2023-06-09T12:15:19.977Z,97790.66
2023-06-09T12:17:48.830Z,97803.75
2023-06-09T12:20:27.485Z,97798.75
2023-06-09T12:23:04.979Z,97793.28
2023-06-09T12:25:35.339Z,97801.66
2023-06-09T12:28:21.645Z,97789.59
2023-06-09T12:30:49.901Z,97784.25
2023-06-09T12:33:24.444Z,97799.41
2023-06-09T12:35:56.018Z,97792.00
2023-06-09T12:38:27.743Z,97788.69
2023-06-09T12:40:55.086Z,97807.00
2023-06-09T12:43:23.831Z,97797.06
2023-06-09T12:45:53.785Z,97792.81
2023-06-09T12:48:20.733Z,97795.50
2023-06-09T12:50:47.244Z,97791.22
2023-06-09T12:53:15.012Z,97808.28
2023-06-09T12:55:42.301Z,97803.06
2023-06-09T12:58:10.683Z,97802.63
2023-06-09T13:00:38.831Z,97807.03
2023-06-09T13:03:07.073Z,97813.00
2023-06-09T13:05:33.531Z,97822.97
2023-06-09T13:08:04.380Z,97815.59
2023-06-09T13:10:31.471Z,97811.25
2023-06-09T13:12:58.500Z,97820.88
2023-06-09T13:15:26.475Z,97827.56
2023-06-09T13:17:54.271Z,97823.88
2023-06-09T13:20:21.427Z,97816.50
2023-06-09T13:22:48.496Z,97817.63
2023-06-09T13:25:15.011Z,97811.56
2023-06-09T13:27:41.697Z,97813.03
2023-06-09T13:30:09.602Z,97809.97
2023-06-09T13:32:36.581Z,97802.09
2023-06-09T13:35:03.186Z,97806.25
2023-06-09T13:37:29.536Z,97809.66
2023-06-09T13:39:55.858Z,97808.53
2023-06-09T13:42:22.293Z,97810.44
2023-06-09T13:44:48.627Z,97807.19
2023-06-09T13:47:14.970Z,97810.91
2023-06-09T13:49:41.505Z,97803.50
2023-06-09T13:52:07.909Z,97804.63
2023-06-09T13:54:34.243Z,97804.91
2023-06-09T13:57:00.902Z,97801.38
2023-06-09T13:59:27.255Z,97796.72
2023-06-09T14:01:53.644Z,97796.19
2023-06-09T14:04:20.269Z,97796.91
2023-06-09T14:06:46.640Z,97797.47
2023-06-09T14:09:12.960Z,97799.09
2023-06-09T14:11:39.432Z,97802.84
2023-06-09T14:14:08.937Z,97803.09
2023-06-09T14:16:35.458Z,97798.19
2023-06-09T14:19:01.970Z,97798.94
2023-06-09T14:21:28.504Z,97795.13
2023-06-09T14:23:54.909Z,97800.22
2023-06-09T14:26:21.285Z,97792.47
2023-06-09T14:28:47.602Z,97795.28
2023-06-09T14:31:14.166Z,97791.94
2023-06-09T14:33:40.531Z,97784.13
2023-06-09T14:36:07.039Z,97786.66
2023-06-09T14:38:33.415Z,97782.19
2023-06-09T14:40:59.728Z,97782.53
2023-06-09T14:43:26.054Z,97782.34
2023-06-09T14:45:52.500Z,97777.97
2023-06-09T14:48:18.941Z,97786.44
2023-06-09T14:50:46.093Z,97782.44
2023-06-09T14:53:12.605Z,97788.28
2023-06-09T14:55:40.849Z,97785.06
2023-06-09T14:58:08.770Z,97783.00
2023-06-09T15:00:35.990Z,97780.59
2023-06-09T15:03:03.251Z,97784.47
2023-06-09T15:05:30.886Z,97778.22
2023-06-09T15:07:59.425Z,97776.81
2023-06-09T15:10:30.248Z,97778.41
2023-06-09T15:12:57.718Z,97775.97
2023-06-09T15:15:24.849Z,97766.78
2023-06-09T15:17:51.403Z,97772.38
2023-06-09T15:20:21.535Z,97769.13
2023-06-09T15:22:48.509Z,97763.81
2023-06-09T15:25:17.814Z,97770.09
2023-06-09T15:27:46.965Z,97757.22
2023-06-09T15:30:15.177Z,97760.91
2023-06-09T15:32:41.671Z,97761.91
2023-06-09T15:35:08.795Z,97766.97
2023-06-09T15:37:35.344Z,97762.50
2023-06-09T15:40:04.274Z,97760.78
2023-06-09T15:42:31.033Z,97753.72
2023-06-09T15:44:57.490Z,97748.91
2023-06-09T15:47:23.856Z,97748.28
2023-06-09T15:49:50.197Z,97753.09
2023-06-09T15:52:16.602Z,97748.91
2023-06-09T15:54:42.915Z,97746.00
2023-06-09T15:57:09.294Z,97740.53
2023-06-09T15:59:35.648Z,97741.88
2023-06-09T16:02:02.007Z,97740.13
2023-06-09T16:04:29.558Z,97738.69
2023-06-09T16:06:55.881Z,97735.66
2023-06-09T16:09:22.210Z,97738.56
2023-06-09T16:11:48.638Z,97737.44
2023-06-09T16:14:14.956Z,97738.84
2023-06-09T16:16:41.305Z,97738.22
2023-06-09T16:19:08.048Z,97738.69
2023-06-09T16:21:34.421Z,97733.38
2023-06-09T16:24:00.907Z,97730.50
2023-06-09T16:26:27.420Z,97725.84
2023-06-09T16:28:53.909Z,97725.56
2023-06-09T16:31:20.688Z,97732.59
2023-06-09T16:33:46.963Z,97730.38
2023-06-09T16:36:13.345Z,97718.91
2023-06-09T16:38:39.899Z,97727.88
2023-06-09T16:41:06.246Z,97718.59
2023-06-09T16:43:32.617Z,97726.09
2023-06-09T16:45:58.991Z,97729.69
2023-06-09T16:48:25.463Z,97728.09
2023-06-09T16:50:51.919Z,97728.94
2023-06-09T16:53:18.295Z,97732.06
2023-06-09T16:55:44.623Z,97736.31
2023-06-09T16:58:11.050Z,97724.47
2023-06-09T17:00:37.397Z,97725.28
2023-06-09T17:03:04.216Z,97725.44
2023-06-09T17:05:30.735Z,97722.84
2023-06-09T17:07:57.180Z,97716.56
2023-06-09T17:10:23.500Z,97722.84
2023-06-09T17:12:50.582Z,97718.31
2023-06-09T17:15:17.068Z,97718.59
2023-06-09T17:17:43.517Z,97716.25
2023-06-09T17:20:10.367Z,97720.59
2023-06-09T17:22:36.736Z,97716.72
2023-06-09T17:25:03.280Z,97718.44
2023-06-09T17:27:29.672Z,97718.81
2023-06-09T17:29:56.060Z,97722.44
2023-06-09T17:32:22.419Z,97712.13
2023-06-09T17:34:48.758Z,97724.03
2023-06-09T17:37:15.106Z,97718.88
2023-06-09T17:39:42.729Z,97729.53
2023-06-09T17:42:09.315Z,97724.69
2023-06-09T17:44:35.782Z,97731.34
2023-06-09T17:47:02.099Z,97744.84
2023-06-09T17:49:28.460Z,97740.13
2023-06-09T17:51:54.895Z,97739.81
2023-06-09T17:54:21.247Z,97742.09
2023-06-09T17:56:47.569Z,97745.25
2023-06-09T17:59:13.948Z,97754.56
2023-06-09T18:01:40.367Z,97752.72
2023-06-09T18:04:06.801Z,97745.06
2023-06-09T18:06:33.300Z,97747.31
2023-06-09T18:08:59.798Z,97757.91
2023-06-09T18:11:26.161Z,97753.16
2023-06-09T18:13:52.521Z,97752.41
2023-06-09T18:16:19.019Z,97753.56
2023-06-09T18:18:45.736Z,97754.72
2023-06-09T18:21:12.096Z,97758.09
2023-06-09T18:23:38.504Z,97755.50
2023-06-09T18:26:06.512Z,97758.84
2023-06-09T18:28:32.834Z,97771.84
2023-06-09T18:30:59.844Z,97764.41
2023-06-09T18:33:26.239Z,97769.53
2023-06-09T18:35:52.565Z,97765.53
2023-06-09T18:38:19.007Z,97763.66
2023-06-09T18:40:45.328Z,97774.28
2023-06-09T18:43:11.668Z,97779.44
2023-06-09T18:45:38.013Z,97774.47
2023-06-09T18:48:04.432Z,97781.38
2023-06-09T18:50:30.957Z,97784.09
2023-06-09T18:52:57.293Z,97786.16
2023-06-09T18:55:23.648Z,97796.72
2023-06-09T18:57:50.101Z,97788.47
2023-06-09T19:00:16.590Z,97795.44
2023-06-09T19:02:43.126Z,97793.75
2023-06-09T19:05:10.507Z,97796.91
2023-06-09T19:07:37.094Z,97791.50
2023-06-09T19:10:03.707Z,97804.47
2023-06-09T19:12:30.055Z,97806.94
2023-06-09T19:14:56.498Z,97801.75
2023-06-09T19:17:22.877Z,97806.13
2023-06-09T19:19:49.483Z,97814.94
2023-06-09T19:22:15.907Z,97815.28
2023-06-09T19:24:43.881Z,97822.03
2023-06-09T19:27:10.431Z,97818.19
2023-06-09T19:29:36.736Z,97823.34
2023-06-09T19:32:03.326Z,97828.19
2023-06-09T19:34:29.772Z,97827.59
2023-06-09T19:36:56.114Z,97828.06
2023-06-09T19:39:22.452Z,97838.28
2023-06-09T19:41:49.124Z,97830.63
2023-06-09T19:44:15.693Z,97834.84
2023-06-09T19:46:42.174Z,97838.50
2023-06-09T19:49:08.567Z,97840.59
2023-06-09T19:51:34.928Z,97846.47
2023-06-09T19:54:01.230Z,97843.94
2023-06-09T19:56:27.558Z,97853.28
2023-06-09T19:58:53.892Z,97854.72
2023-06-09T20:01:20.413Z,97849.94
2023-06-09T20:03:46.871Z,97859.56
2023-06-09T20:06:13.212Z,97852.84
2023-06-09T20:08:39.610Z,97862.47
2023-06-09T20:11:05.940Z,97861.22
2023-06-09T20:13:32.401Z,97858.34
2023-06-09T20:15:58.840Z,97868.72
2023-06-09T20:18:25.218Z,97875.09
2023-06-09T20:20:51.663Z,97867.28
2023-06-09T20:23:18.247Z,97866.84
2023-06-09T20:25:44.667Z,97883.75
2023-06-09T20:28:11.112Z,97882.44
2023-06-09T20:30:37.525Z,97886.56
2023-06-09T20:33:04.023Z,97874.19
2023-06-09T20:35:30.429Z,97875.63
2023-06-09T20:37:56.902Z,97876.75
2023-06-09T20:40:23.244Z,97887.13
2023-06-09T20:42:49.582Z,97885.56
2023-06-09T20:45:16.083Z,97880.47
2023-06-09T20:47:43.102Z,97888.09
2023-06-09T20:50:09.643Z,97891.13
2023-06-09T20:52:36.051Z,97888.75
2023-06-09T20:55:02.898Z,97887.69
2023-06-09T20:57:29.331Z,97892.34
2023-06-09T20:59:56.340Z,97891.28
2023-06-09T21:02:22.756Z,97893.19
2023-06-09T21:04:49.253Z,97889.19
2023-06-09T21:07:15.695Z,97890.88
2023-06-09T21:09:42.106Z,97887.97
2023-06-09T21:12:09.232Z,97897.44
2023-06-09T21:14:35.481Z,97890.78
2023-06-09T21:17:01.908Z,97894.31
2023-06-09T21:19:28.402Z,97894.09
2023-06-09T21:21:54.743Z,97900.09
2023-06-09T21:24:21.179Z,97892.81
2023-06-09T21:26:47.565Z,97885.25
2023-06-09T21:29:14.039Z,97897.16
2023-06-09T21:31:40.417Z,97893.13
2023-06-09T21:34:06.817Z,97898.28
2023-06-09T21:36:33.210Z,97898.56
2023-06-09T21:38:59.800Z,97898.06
2023-06-09T21:41:26.180Z,97905.59
2023-06-09T21:43:52.530Z,97906.16
2023-06-09T21:46:19.537Z,97901.88
2023-06-09T21:48:45.875Z,97904.81
2023-06-09T21:51:12.319Z,97901.59
2023-06-09T21:53:38.672Z,97898.38
2023-06-09T21:56:05.214Z,97901.06
2023-06-09T21:58:31.586Z,97898.63
2023-06-09T22:00:57.953Z,97909.38
2023-06-09T22:03:24.315Z,97896.16
2023-06-09T22:05:50.675Z,97905.31
2023-06-09T22:08:17.046Z,97901.00
2023-06-09T22:10:43.372Z,97902.34
2023-06-09T22:13:09.687Z,97898.28
2023-06-09T22:15:36.273Z,97899.88
2023-06-09T22:18:02.631Z,97900.16
2023-06-09T22:20:29.107Z,97904.72
2023-06-09T22:22:55.498Z,97897.97
2023-06-09T22:25:21.849Z,97900.91
2023-06-09T22:27:48.407Z,97893.88
2023-06-09T22:30:15.106Z,97893.88
2023-06-09T22:32:41.666Z,97898.44
2023-06-09T22:35:08.576Z,97893.84
2023-06-09T22:37:35.104Z,97886.53
2023-06-09T22:40:01.594Z,97887.88
2023-06-09T22:42:27.946Z,97879.50
2023-06-09T22:44:54.279Z,97887.84
2023-06-09T22:47:20.839Z,97884.88
2023-06-09T22:50:05.277Z,97887.28
2023-06-09T22:52:31.939Z,97883.22
2023-06-09T22:54:58.275Z,97886.44
2023-06-09T22:57:24.673Z,97885.31
2023-06-09T22:59:51.107Z,97878.56
2023-06-09T23:02:17.472Z,97886.63
2023-06-09T23:04:43.809Z,97889.56
2023-06-09T23:07:10.269Z,97888.97
2023-06-09T23:09:36.613Z,97898.38
2023-06-09T23:12:03.255Z,97900.78
2023-06-09T23:14:29.702Z,97891.88
2023-06-09T23:16:56.034Z,97884.81
2023-06-09T23:19:22.375Z,97889.63
2023-06-09T23:21:48.805Z,97893.91
2023-06-09T23:24:15.258Z,97896.59
2023-06-09T23:26:41.883Z,97887.16
2023-06-09T23:29:08.230Z,97894.38
2023-06-09T23:31:34.732Z,97889.53
2023-06-09T23:34:01.093Z,97886.25
2023-06-09T23:36:27.453Z,97889.19
2023-06-09T23:38:53.963Z,97889.19
2023-06-09T23:41:20.343Z,97886.22
2023-06-09T23:43:46.697Z,97889.44
2023-06-09T23:46:13.293Z,97894.25
2023-06-09T23:48:39.703Z,97891.00
2023-06-09T23:51:06.036Z,97886.97
2023-06-09T23:53:32.397Z,97889.91
2023-06-09T23:55:58.757Z,97889.63
2023-06-09T23:58:25.089Z,97888.16
